createdAt,value
2016-12-28T00:00:13.519Z,0
2016-12-28T00:00:54.093Z,0
2016-12-28T00:01:34.651Z,0
2016-12-28T00:02:15.204Z,0
2016-12-28T00:02:55.793Z,0
2016-12-28T00:03:36.373Z,0
2016-12-28T00:04:16.977Z,0
2016-12-28T00:04:57.563Z,0
2016-12-28T00:05:38.137Z,0
2016-12-28T00:06:18.707Z,0
2016-12-28T00:06:59.281Z,0
2016-12-28T00:07:39.858Z,0
2016-12-28T00:08:20.438Z,0
2016-12-28T00:09:01.009Z,0
2016-12-28T00:09:41.590Z,0
2016-12-28T00:10:22.171Z,0
2016-12-28T00:11:02.738Z,0
2016-12-28T00:11:43.307Z,0
2016-12-28T00:12:23.869Z,0
2016-12-28T00:13:04.444Z,0
2016-12-28T00:13:45.030Z,0
2016-12-28T00:14:25.604Z,0
2016-12-28T00:15:06.174Z,0
2016-12-28T00:15:46.748Z,0
2016-12-28T00:16:27.325Z,0
2016-12-28T00:17:07.906Z,0
2016-12-28T00:17:48.483Z,0
2016-12-28T00:18:29.055Z,0
2016-12-28T00:19:09.638Z,0
2016-12-28T00:19:50.205Z,0
2016-12-28T00:20:30.788Z,0
2016-12-28T00:21:11.362Z,0
2016-12-28T00:21:51.948Z,0
2016-12-28T00:22:32.514Z,0
2016-12-28T00:23:13.088Z,0
2016-12-28T00:23:53.663Z,0
2016-12-28T00:24:34.235Z,0
2016-12-28T00:25:14.815Z,0
2016-12-28T00:25:55.386Z,0
2016-12-28T00:26:35.964Z,0
2016-12-28T00:27:16.537Z,0
2016-12-28T00:27:57.119Z,0
2016-12-28T00:28:37.689Z,0
2016-12-28T00:29:18.245Z,0
2016-12-28T00:29:58.807Z,0
2016-12-28T00:30:39.376Z,0
2016-12-28T00:31:19.947Z,0
2016-12-28T00:32:00.524Z,0
2016-12-28T00:32:41.098Z,0
2016-12-28T00:33:21.697Z,0
2016-12-28T00:34:02.273Z,0
2016-12-28T00:34:42.851Z,0
2016-12-28T00:35:23.424Z,0
2016-12-28T00:36:04.005Z,0
2016-12-28T00:36:44.588Z,0
2016-12-28T00:37:25.153Z,0
2016-12-28T00:38:05.735Z,0
2016-12-28T00:38:46.324Z,0
2016-12-28T00:39:26.904Z,0
2016-12-28T00:40:07.466Z,0
2016-12-28T00:40:48.057Z,0
2016-12-28T00:41:28.646Z,0
2016-12-28T00:42:09.227Z,0
2016-12-28T00:42:49.810Z,0
2016-12-28T00:43:30.386Z,0
2016-12-28T00:44:10.960Z,0
2016-12-28T00:44:51.539Z,0
2016-12-28T00:45:32.112Z,0
2016-12-28T00:46:12.696Z,0
2016-12-28T00:46:53.266Z,0
2016-12-28T00:47:33.841Z,0
2016-12-28T00:48:14.418Z,0
2016-12-28T00:48:54.983Z,0
2016-12-28T00:49:35.547Z,0
2016-12-28T00:50:16.121Z,0
2016-12-28T00:50:56.701Z,0
2016-12-28T00:51:37.270Z,0
2016-12-28T00:52:17.849Z,0
2016-12-28T00:52:58.431Z,0
2016-12-28T00:53:39.002Z,0
2016-12-28T00:54:19.582Z,0
2016-12-28T00:55:00.165Z,0
2016-12-28T00:55:40.741Z,0
2016-12-28T00:56:21.305Z,0
2016-12-28T00:57:01.886Z,0
2016-12-28T00:57:42.462Z,0
2016-12-28T00:58:23.039Z,0
2016-12-28T00:59:03.610Z,0
2016-12-28T00:59:44.188Z,0
2016-12-28T01:00:24.763Z,0
2016-12-28T01:01:05.336Z,0
2016-12-28T01:01:45.908Z,0
2016-12-28T01:02:26.482Z,0
2016-12-28T01:03:07.055Z,0
2016-12-28T01:03:47.638Z,0
2016-12-28T01:04:28.212Z,0
2016-12-28T01:05:08.789Z,0
2016-12-28T01:05:49.368Z,0
2016-12-28T01:06:29.959Z,0
2016-12-28T01:07:10.538Z,0
2016-12-28T01:07:51.103Z,0
2016-12-28T01:08:31.672Z,0
2016-12-28T01:09:12.247Z,0
2016-12-28T01:09:52.814Z,0
2016-12-28T01:10:33.398Z,0
2016-12-28T01:11:13.981Z,0
2016-12-28T01:11:54.559Z,0
2016-12-28T01:12:35.142Z,0
2016-12-28T01:13:15.724Z,0
2016-12-28T01:13:56.299Z,0
2016-12-28T01:14:36.876Z,0
2016-12-28T01:15:17.445Z,0
2016-12-28T01:15:58.028Z,0
2016-12-28T01:16:38.607Z,0
2016-12-28T01:17:19.176Z,0
2016-12-28T01:17:59.740Z,0
2016-12-28T01:18:40.332Z,0
2016-12-28T01:19:20.901Z,0
2016-12-28T01:20:01.467Z,0
2016-12-28T01:20:42.043Z,0
2016-12-28T01:21:22.623Z,0
2016-12-28T01:22:03.199Z,0
2016-12-28T01:22:43.765Z,0
2016-12-28T01:23:24.322Z,0
2016-12-28T01:24:04.913Z,0
2016-12-28T01:24:45.483Z,0
2016-12-28T01:25:26.049Z,0
2016-12-28T01:26:06.619Z,0
2016-12-28T01:26:47.188Z,0
2016-12-28T01:27:27.769Z,0
2016-12-28T01:28:08.344Z,0
2016-12-28T01:28:48.920Z,0
2016-12-28T01:29:29.504Z,0
2016-12-28T01:30:10.078Z,0
2016-12-28T01:30:50.659Z,0
2016-12-28T01:31:31.229Z,0
2016-12-28T01:32:11.812Z,0
2016-12-28T01:32:52.378Z,0
2016-12-28T01:33:32.957Z,0
2016-12-28T01:34:13.531Z,0
2016-12-28T01:34:54.099Z,0
2016-12-28T01:35:34.670Z,0
2016-12-28T01:36:15.250Z,0
2016-12-28T01:36:55.820Z,0
2016-12-28T01:37:36.396Z,0
2016-12-28T01:38:16.972Z,0
2016-12-28T01:38:57.560Z,0
2016-12-28T01:39:38.133Z,0
2016-12-28T01:40:18.719Z,0
2016-12-28T01:40:59.297Z,0
2016-12-28T01:41:39.862Z,0
2016-12-28T01:42:20.445Z,0
2016-12-28T01:43:01.016Z,0
2016-12-28T01:43:41.588Z,0
2016-12-28T01:44:22.177Z,0
2016-12-28T01:45:02.762Z,0
2016-12-28T01:45:43.342Z,0
2016-12-28T01:46:23.917Z,0
2016-12-28T01:47:04.489Z,0
2016-12-28T01:47:45.099Z,0
2016-12-28T01:48:25.670Z,0
2016-12-28T01:49:06.255Z,0
2016-12-28T01:49:46.823Z,0
2016-12-28T01:50:27.403Z,0
2016-12-28T01:51:07.986Z,0
2016-12-28T01:51:48.543Z,0
2016-12-28T01:52:29.118Z,0
2016-12-28T01:53:09.679Z,0
2016-12-28T01:53:50.272Z,0
2016-12-28T01:54:30.822Z,0
2016-12-28T01:55:11.391Z,0
2016-12-28T01:55:51.964Z,0
2016-12-28T01:56:32.538Z,0
2016-12-28T01:57:13.120Z,0
2016-12-28T01:57:53.690Z,0
2016-12-28T01:58:34.284Z,0
2016-12-28T01:59:14.848Z,0
2016-12-28T01:59:55.434Z,0
2016-12-28T02:00:36.002Z,0
2016-12-28T02:01:16.580Z,0
2016-12-28T02:01:57.164Z,0
2016-12-28T02:02:37.738Z,0
2016-12-28T02:03:18.310Z,0
2016-12-28T02:03:58.888Z,0
2016-12-28T02:04:39.457Z,0
2016-12-28T02:05:20.039Z,0
2016-12-28T02:06:00.608Z,0
2016-12-28T02:06:41.186Z,0
2016-12-28T02:07:21.787Z,0
2016-12-28T02:08:02.368Z,0
2016-12-28T02:08:42.940Z,0
2016-12-28T02:09:23.536Z,0
2016-12-28T02:10:04.109Z,0
2016-12-28T02:10:44.675Z,0
2016-12-28T02:11:25.239Z,0
2016-12-28T02:12:05.806Z,0
2016-12-28T02:12:46.393Z,0
2016-12-28T02:13:26.979Z,0
2016-12-28T02:14:07.551Z,0
2016-12-28T02:14:48.136Z,0
2016-12-28T02:15:28.703Z,0
2016-12-28T02:16:09.287Z,0
2016-12-28T02:16:49.855Z,0
2016-12-28T02:17:30.426Z,0
2016-12-28T02:18:10.998Z,0
2016-12-28T02:18:51.576Z,0
2016-12-28T02:19:32.138Z,0
2016-12-28T02:20:12.709Z,0
2016-12-28T02:20:53.282Z,0
2016-12-28T02:21:33.866Z,0
2016-12-28T02:22:14.435Z,0
2016-12-28T02:22:55.004Z,0
2016-12-28T02:23:35.582Z,0
2016-12-28T02:24:16.168Z,0
2016-12-28T02:24:56.743Z,0
2016-12-28T02:25:37.321Z,0
2016-12-28T02:26:17.875Z,0
2016-12-28T02:26:58.437Z,0
2016-12-28T02:27:39.011Z,0
2016-12-28T02:28:19.582Z,0
2016-12-28T02:29:00.186Z,0
2016-12-28T02:29:40.757Z,0
2016-12-28T02:30:21.327Z,0
2016-12-28T02:31:01.904Z,0
2016-12-28T02:31:42.475Z,0
2016-12-28T02:32:29.720Z,0
2016-12-28T02:33:10.497Z,0
2016-12-28T02:33:51.072Z,0
2016-12-28T02:34:31.645Z,0
2016-12-28T02:35:12.228Z,0
2016-12-28T02:35:52.809Z,0
2016-12-28T02:36:33.373Z,0
2016-12-28T02:37:13.938Z,0
2016-12-28T02:37:54.510Z,0
2016-12-28T02:38:35.098Z,0
2016-12-28T02:39:15.674Z,0
2016-12-28T02:39:56.227Z,0
2016-12-28T02:40:36.801Z,0
2016-12-28T02:41:17.383Z,0
2016-12-28T02:41:57.956Z,0
2016-12-28T02:42:38.518Z,0
2016-12-28T02:43:19.082Z,0
2016-12-28T02:43:59.662Z,0
2016-12-28T02:44:40.237Z,0
2016-12-28T02:45:20.821Z,0
2016-12-28T02:46:01.391Z,0
2016-12-28T02:46:41.959Z,0
2016-12-28T02:47:22.540Z,0
2016-12-28T02:48:03.117Z,0
2016-12-28T02:48:43.686Z,0
2016-12-28T02:49:24.260Z,0
2016-12-28T02:50:04.847Z,0
2016-12-28T02:50:45.416Z,0
2016-12-28T02:51:25.991Z,0
2016-12-28T02:52:06.571Z,0
2016-12-28T02:52:47.151Z,0
2016-12-28T02:53:27.715Z,0
2016-12-28T02:54:08.306Z,0
2016-12-28T02:54:48.856Z,0
2016-12-28T02:55:29.432Z,0
2016-12-28T02:56:10.020Z,0
2016-12-28T02:56:50.592Z,0
2016-12-28T02:57:31.164Z,0
2016-12-28T02:58:11.747Z,0
2016-12-28T02:58:52.336Z,0
2016-12-28T02:59:32.894Z,0
2016-12-28T03:00:13.471Z,0
2016-12-28T03:00:54.043Z,0
2016-12-28T03:01:34.617Z,0
2016-12-28T03:02:15.195Z,0
2016-12-28T03:02:55.766Z,0
2016-12-28T03:03:36.341Z,0
2016-12-28T03:04:16.915Z,0
2016-12-28T03:04:57.486Z,0
2016-12-28T03:05:38.061Z,0
2016-12-28T03:06:18.630Z,0
2016-12-28T03:06:59.219Z,0
2016-12-28T03:07:39.794Z,0
2016-12-28T03:08:20.370Z,0
2016-12-28T03:09:00.940Z,0
2016-12-28T03:09:41.523Z,0
2016-12-28T03:10:22.091Z,0
2016-12-28T03:11:02.674Z,0
2016-12-28T03:11:43.237Z,0
2016-12-28T03:12:23.806Z,0
2016-12-28T03:13:04.389Z,0
2016-12-28T03:13:44.967Z,0
2016-12-28T03:14:25.532Z,0
2016-12-28T03:15:06.121Z,0
2016-12-28T03:15:46.704Z,0
2016-12-28T03:16:27.275Z,0
2016-12-28T03:17:07.851Z,0
2016-12-28T03:17:48.429Z,0
2016-12-28T03:18:29.009Z,0
2016-12-28T03:19:09.580Z,0
2016-12-28T03:19:50.154Z,0
2016-12-28T03:20:30.740Z,0
2016-12-28T03:21:11.317Z,0
2016-12-28T03:21:51.887Z,0
2016-12-28T03:22:32.462Z,0
2016-12-28T03:23:13.035Z,0
2016-12-28T03:23:53.612Z,0
2016-12-28T03:24:34.188Z,0
2016-12-28T03:25:14.751Z,0
2016-12-28T03:25:55.327Z,0
2016-12-28T03:26:35.911Z,0
2016-12-28T03:27:16.476Z,0
2016-12-28T03:27:57.051Z,0
2016-12-28T03:28:37.626Z,0
2016-12-28T03:29:18.206Z,0
2016-12-28T03:29:58.784Z,0
2016-12-28T03:30:39.352Z,0
2016-12-28T03:31:19.928Z,0
2016-12-28T03:32:00.505Z,0
2016-12-28T03:32:41.080Z,0
2016-12-28T03:33:21.651Z,0
2016-12-28T03:34:02.214Z,0
2016-12-28T03:34:42.791Z,0
2016-12-28T03:35:23.371Z,0
2016-12-28T03:36:03.940Z,0
2016-12-28T03:36:44.505Z,0
2016-12-28T03:37:25.068Z,0
2016-12-28T03:38:05.656Z,0
2016-12-28T03:38:46.240Z,0
2016-12-28T03:39:26.819Z,0
2016-12-28T03:40:07.391Z,0
2016-12-28T03:40:47.975Z,0
2016-12-28T03:41:28.537Z,0
2016-12-28T03:42:09.115Z,0
2016-12-28T03:42:49.697Z,0
2016-12-28T03:43:30.271Z,0
2016-12-28T03:44:10.851Z,0
2016-12-28T03:44:51.422Z,0
2016-12-28T03:45:31.999Z,0
2016-12-28T03:46:12.575Z,0
2016-12-28T03:46:53.152Z,0
2016-12-28T03:47:33.728Z,0
2016-12-28T03:48:14.307Z,0
2016-12-28T03:48:54.896Z,0
2016-12-28T03:49:35.463Z,0
2016-12-28T03:50:16.045Z,0
2016-12-28T03:50:56.627Z,0
2016-12-28T03:51:37.201Z,0
2016-12-28T03:52:17.762Z,0
2016-12-28T03:52:58.336Z,0
2016-12-28T03:53:38.913Z,0
2016-12-28T03:54:19.501Z,0
2016-12-28T03:55:00.073Z,0
2016-12-28T03:55:40.643Z,0
2016-12-28T03:56:21.221Z,0
2016-12-28T03:57:01.811Z,0
2016-12-28T03:57:42.379Z,0
2016-12-28T03:58:22.981Z,0
2016-12-28T03:59:03.559Z,0
2016-12-28T03:59:44.138Z,0
2016-12-28T04:00:24.703Z,0
2016-12-28T04:01:05.291Z,0
2016-12-28T04:01:45.888Z,0
2016-12-28T04:02:26.463Z,0
2016-12-28T04:03:07.050Z,0
2016-12-28T04:03:47.634Z,0
2016-12-28T04:04:28.211Z,0
2016-12-28T04:05:08.791Z,0
2016-12-28T04:05:49.369Z,0
2016-12-28T04:06:29.944Z,0
2016-12-28T04:07:10.509Z,0
2016-12-28T04:07:51.083Z,0
2016-12-28T04:08:31.676Z,0
2016-12-28T04:09:12.244Z,0
2016-12-28T04:09:52.831Z,0
2016-12-28T04:10:33.413Z,0
2016-12-28T04:11:13.992Z,0
2016-12-28T04:11:54.567Z,0
2016-12-28T04:12:35.142Z,0
2016-12-28T04:13:15.715Z,0
2016-12-28T04:13:56.271Z,0
2016-12-28T04:14:36.843Z,0
2016-12-28T04:15:17.417Z,0
2016-12-28T04:15:57.997Z,0
2016-12-28T04:16:38.576Z,0
2016-12-28T04:17:19.153Z,0
2016-12-28T04:17:59.727Z,0
2016-12-28T04:18:40.301Z,0
2016-12-28T04:19:20.882Z,0
2016-12-28T04:20:01.457Z,0
2016-12-28T04:20:42.025Z,0
2016-12-28T04:21:22.601Z,0
2016-12-28T04:22:03.183Z,0
2016-12-28T04:22:43.762Z,0
2016-12-28T04:23:24.350Z,0
2016-12-28T04:24:04.935Z,0
2016-12-28T04:24:45.516Z,0
2016-12-28T04:25:26.084Z,0
2016-12-28T04:26:06.659Z,0
2016-12-28T04:26:47.241Z,0
2016-12-28T04:27:27.816Z,0
2016-12-28T04:28:08.389Z,0
2016-12-28T04:28:48.970Z,0
2016-12-28T04:29:29.544Z,0
2016-12-28T04:30:10.126Z,0
2016-12-28T04:30:50.692Z,0
2016-12-28T04:31:31.273Z,0
2016-12-28T04:32:11.852Z,0
2016-12-28T04:32:52.427Z,0
2016-12-28T04:33:33.020Z,0
2016-12-28T04:34:13.571Z,0
2016-12-28T04:34:54.147Z,0
2016-12-28T04:35:34.718Z,0
2016-12-28T04:36:15.285Z,0
2016-12-28T04:36:55.850Z,0
2016-12-28T04:37:36.438Z,0
2016-12-28T04:38:17.011Z,0
2016-12-28T04:38:57.607Z,0
2016-12-28T04:39:38.190Z,0
2016-12-28T04:40:18.759Z,0
2016-12-28T04:40:59.340Z,0
2016-12-28T04:41:39.909Z,0
2016-12-28T04:42:20.493Z,0
2016-12-28T04:43:01.079Z,0
2016-12-28T04:43:41.639Z,0
2016-12-28T04:44:22.221Z,0
2016-12-28T04:45:02.794Z,0
2016-12-28T04:45:43.386Z,0
2016-12-28T04:46:23.967Z,0
2016-12-28T04:47:04.530Z,0
2016-12-28T04:47:45.117Z,0
2016-12-28T04:48:25.687Z,0
2016-12-28T04:49:06.262Z,0
2016-12-28T04:49:46.850Z,0
2016-12-28T04:50:27.421Z,0
2016-12-28T04:51:07.999Z,0
2016-12-28T04:51:48.581Z,0
2016-12-28T04:52:29.154Z,0
2016-12-28T04:53:09.733Z,0
2016-12-28T04:53:50.305Z,0
2016-12-28T04:54:30.877Z,0
2016-12-28T04:55:11.453Z,0
2016-12-28T04:55:52.035Z,0
2016-12-28T04:56:32.615Z,0
2016-12-28T04:57:13.195Z,0
2016-12-28T04:57:53.773Z,0
2016-12-28T04:58:34.335Z,0
2016-12-28T04:59:14.909Z,0
2016-12-28T04:59:55.471Z,0
2016-12-28T05:00:36.033Z,0
2016-12-28T05:01:16.609Z,0
2016-12-28T05:01:57.175Z,0
2016-12-28T05:02:37.746Z,0
2016-12-28T05:03:18.311Z,0
2016-12-28T05:03:58.872Z,0
2016-12-28T05:04:39.440Z,0
2016-12-28T05:05:20.017Z,0
2016-12-28T05:06:00.586Z,0
2016-12-28T05:06:41.155Z,0
2016-12-28T05:07:21.720Z,0
2016-12-28T05:08:02.276Z,0
2016-12-28T05:08:42.845Z,0
2016-12-28T05:09:23.422Z,0
2016-12-28T05:10:04.007Z,0
2016-12-28T05:10:44.575Z,0
2016-12-28T05:11:25.148Z,0
2016-12-28T05:12:05.755Z,0
2016-12-28T05:12:46.330Z,0
2016-12-28T05:13:26.902Z,0
2016-12-28T05:14:07.485Z,0
2016-12-28T05:14:48.066Z,0
2016-12-28T05:15:28.633Z,0
2016-12-28T05:16:09.208Z,0
2016-12-28T05:16:49.781Z,0
2016-12-28T05:17:30.355Z,0
2016-12-28T05:18:10.919Z,0
2016-12-28T05:18:51.489Z,0
2016-12-28T05:19:32.044Z,0
2016-12-28T05:20:12.615Z,0
2016-12-28T05:20:53.189Z,0
2016-12-28T05:21:33.773Z,0
2016-12-28T05:22:14.342Z,0
2016-12-28T05:22:54.924Z,0
2016-12-28T05:23:35.496Z,0
2016-12-28T05:24:16.080Z,0
2016-12-28T05:24:56.649Z,0
2016-12-28T05:25:37.227Z,0
2016-12-28T05:26:17.805Z,0
2016-12-28T05:26:58.383Z,0
2016-12-28T05:27:38.959Z,0
2016-12-28T05:28:19.538Z,0
2016-12-28T05:29:00.107Z,0
2016-12-28T05:29:40.680Z,0
2016-12-28T05:30:21.256Z,0
2016-12-28T05:31:01.817Z,0
2016-12-28T05:31:42.391Z,0
2016-12-28T05:32:22.972Z,0
2016-12-28T05:33:03.543Z,0
2016-12-28T05:33:44.114Z,0
2016-12-28T05:34:24.699Z,0
2016-12-28T05:35:05.276Z,0
2016-12-28T05:35:45.855Z,0
2016-12-28T05:36:26.427Z,0
2016-12-28T05:37:07.010Z,0
2016-12-28T05:37:47.588Z,0
2016-12-28T05:38:28.153Z,0
2016-12-28T05:39:08.728Z,0
2016-12-28T05:39:49.306Z,0
2016-12-28T05:40:29.887Z,0
2016-12-28T05:41:10.455Z,0
2016-12-28T05:41:51.036Z,0
2016-12-28T05:42:31.602Z,0
2016-12-28T05:43:12.177Z,0
2016-12-28T05:43:52.749Z,0
2016-12-28T05:44:33.322Z,0
2016-12-28T05:45:13.898Z,0
2016-12-28T05:45:54.479Z,0
2016-12-28T05:46:35.053Z,0
2016-12-28T05:47:15.623Z,0
2016-12-28T05:47:56.188Z,0
2016-12-28T05:48:36.773Z,0
2016-12-28T05:49:17.349Z,0
2016-12-28T05:49:57.924Z,0
2016-12-28T05:50:38.496Z,0
2016-12-28T05:51:19.059Z,0
2016-12-28T05:51:59.634Z,0
2016-12-28T05:52:40.215Z,0
2016-12-28T05:53:20.793Z,0
2016-12-28T05:54:01.342Z,0
2016-12-28T05:54:41.919Z,0
2016-12-28T05:55:22.483Z,0
2016-12-28T05:56:03.065Z,0
2016-12-28T05:56:43.637Z,0
2016-12-28T05:57:24.208Z,0
2016-12-28T05:58:04.763Z,0
2016-12-28T05:58:45.328Z,0
2016-12-28T05:59:25.925Z,0
2016-12-28T06:00:06.508Z,0
2016-12-28T06:00:47.083Z,0
2016-12-28T06:01:27.659Z,0
2016-12-28T06:02:08.226Z,0
2016-12-28T06:02:48.796Z,0
2016-12-28T06:03:29.367Z,0
2016-12-28T06:04:09.935Z,0
2016-12-28T06:04:50.503Z,0
2016-12-28T06:05:31.086Z,0
2016-12-28T06:06:11.665Z,0
2016-12-28T06:06:52.244Z,0
2016-12-28T06:07:32.807Z,0
2016-12-28T06:08:13.400Z,0
2016-12-28T06:08:53.967Z,0
2016-12-28T06:09:34.531Z,0
2016-12-28T06:10:15.106Z,0
2016-12-28T06:10:55.693Z,0
2016-12-28T06:11:36.263Z,0
2016-12-28T06:12:16.840Z,0
2016-12-28T06:12:57.425Z,0
2016-12-28T06:13:38.005Z,0
2016-12-28T06:14:18.571Z,0
2016-12-28T06:14:59.154Z,0
2016-12-28T06:15:39.730Z,0
2016-12-28T06:16:20.308Z,0
2016-12-28T06:17:00.889Z,0
2016-12-28T06:17:41.461Z,0
2016-12-28T06:18:22.034Z,0
2016-12-28T06:19:02.617Z,0
2016-12-28T06:19:43.192Z,0
2016-12-28T06:20:23.776Z,0
2016-12-28T06:21:04.355Z,0
2016-12-28T06:21:44.936Z,0
2016-12-28T06:22:25.518Z,0
2016-12-28T06:23:06.098Z,0
2016-12-28T06:23:46.675Z,0
2016-12-28T06:24:27.259Z,0
2016-12-28T06:25:07.838Z,0
2016-12-28T06:25:48.424Z,0
2016-12-28T06:26:28.996Z,0
2016-12-28T06:27:09.580Z,0
2016-12-28T06:27:50.182Z,0
2016-12-28T06:28:30.780Z,0
2016-12-28T06:29:11.369Z,0
2016-12-28T06:29:51.952Z,0
2016-12-28T06:30:32.529Z,0
2016-12-28T06:31:13.106Z,0
2016-12-28T06:31:53.688Z,0
2016-12-28T06:32:34.276Z,0
2016-12-28T06:33:14.829Z,0
2016-12-28T06:33:55.418Z,0
2016-12-28T06:34:36.023Z,0
2016-12-28T06:35:16.593Z,0
2016-12-28T06:35:57.184Z,0
2016-12-28T06:36:37.754Z,0
2016-12-28T06:37:18.305Z,0
2016-12-28T06:37:58.867Z,0
2016-12-28T06:38:39.433Z,0
2016-12-28T06:39:20.005Z,0
2016-12-28T06:40:00.584Z,0
2016-12-28T06:40:41.166Z,0
2016-12-28T06:41:21.738Z,0
2016-12-28T06:42:02.317Z,0
2016-12-28T06:42:42.893Z,0
2016-12-28T06:43:23.461Z,0
2016-12-28T06:44:04.032Z,0
2016-12-28T06:44:44.606Z,0
2016-12-28T06:45:25.185Z,0
2016-12-28T06:46:05.770Z,0
2016-12-28T06:46:46.348Z,0
2016-12-28T06:47:26.923Z,0
2016-12-28T06:48:07.502Z,0
2016-12-28T06:48:48.074Z,0
2016-12-28T06:49:28.662Z,0
2016-12-28T06:50:09.228Z,0
2016-12-28T06:50:49.802Z,0
2016-12-28T06:51:30.375Z,0
2016-12-28T06:52:10.947Z,0
2016-12-28T06:52:51.517Z,0
2016-12-28T06:53:32.102Z,0
2016-12-28T06:54:12.686Z,0
2016-12-28T06:54:53.258Z,0
2016-12-28T06:55:33.827Z,0
2016-12-28T06:56:14.413Z,0
2016-12-28T06:56:54.986Z,0
2016-12-28T06:57:35.548Z,0
2016-12-28T06:58:16.123Z,0
2016-12-28T06:58:56.696Z,0
2016-12-28T06:59:37.269Z,0
2016-12-28T07:00:17.843Z,0
2016-12-28T07:00:58.414Z,0
2016-12-28T07:01:39.019Z,0
2016-12-28T07:02:19.582Z,0
2016-12-28T07:03:00.157Z,0
2016-12-28T07:03:40.733Z,0
2016-12-28T07:04:21.310Z,0
2016-12-28T07:05:01.872Z,0
2016-12-28T07:05:42.444Z,0
2016-12-28T07:06:23.020Z,0
2016-12-28T07:07:03.589Z,0
2016-12-28T07:07:44.175Z,0
2016-12-28T07:08:24.756Z,0
2016-12-28T07:09:05.337Z,0
2016-12-28T07:09:45.906Z,0
2016-12-28T07:10:26.480Z,0
2016-12-28T07:11:07.056Z,0
2016-12-28T07:11:47.620Z,0
2016-12-28T07:12:28.199Z,0
2016-12-28T07:13:08.773Z,0
2016-12-28T07:13:49.359Z,0
2016-12-28T07:14:29.932Z,0
2016-12-28T07:15:10.510Z,0
2016-12-28T07:15:51.095Z,0
2016-12-28T07:16:31.657Z,0
2016-12-28T07:17:12.230Z,0
2016-12-28T07:17:52.801Z,0
2016-12-28T07:18:33.376Z,0
2016-12-28T07:19:13.939Z,0
2016-12-28T07:19:54.519Z,0
2016-12-28T07:20:35.089Z,0
2016-12-28T07:21:15.662Z,0
2016-12-28T07:21:56.250Z,0
2016-12-28T07:22:36.834Z,0
2016-12-28T07:23:17.409Z,0
2016-12-28T07:23:57.977Z,0
2016-12-28T07:24:38.579Z,0
2016-12-28T07:25:19.164Z,0
2016-12-28T07:25:59.734Z,0
2016-12-28T07:26:40.305Z,0
2016-12-28T07:27:20.882Z,0
2016-12-28T07:28:01.460Z,0
2016-12-28T07:28:42.029Z,0
2016-12-28T07:29:22.609Z,0
2016-12-28T07:30:03.182Z,0
2016-12-28T07:30:43.751Z,0
2016-12-28T07:31:24.323Z,0
2016-12-28T07:32:04.897Z,0
2016-12-28T07:32:45.447Z,0
2016-12-28T07:33:26.019Z,0
2016-12-28T07:34:06.590Z,0
2016-12-28T07:34:47.153Z,0
2016-12-28T07:35:27.725Z,0
2016-12-28T07:36:08.298Z,0
2016-12-28T07:36:48.895Z,0
2016-12-28T07:37:29.461Z,0
2016-12-28T07:38:10.035Z,0
2016-12-28T07:38:50.610Z,0
2016-12-28T07:39:31.181Z,0
2016-12-28T07:40:11.765Z,0
2016-12-28T07:40:52.339Z,0
2016-12-28T07:41:32.906Z,0
2016-12-28T07:42:13.484Z,0
2016-12-28T07:42:54.059Z,0
2016-12-28T07:43:34.627Z,0
2016-12-28T07:44:15.189Z,0
2016-12-28T07:44:55.765Z,0
2016-12-28T07:45:36.352Z,0
2016-12-28T07:46:16.923Z,0
2016-12-28T07:46:57.493Z,0
2016-12-28T07:47:38.056Z,0
2016-12-28T07:48:18.636Z,0
2016-12-28T07:48:59.206Z,0
2016-12-28T07:49:39.778Z,0
2016-12-28T07:50:20.349Z,0
2016-12-28T07:51:00.935Z,0
2016-12-28T07:51:41.513Z,0
2016-12-28T07:52:22.083Z,0
2016-12-28T07:53:02.651Z,0
2016-12-28T07:53:43.224Z,0
2016-12-28T07:54:23.804Z,0
2016-12-28T07:55:04.386Z,0
2016-12-28T07:55:44.952Z,0
2016-12-28T07:56:25.535Z,0
2016-12-28T07:57:06.102Z,0
2016-12-28T07:57:46.677Z,0
2016-12-28T07:58:27.258Z,0
2016-12-28T07:59:07.836Z,0
2016-12-28T07:59:48.406Z,0
2016-12-28T08:00:28.978Z,0
2016-12-28T08:01:09.562Z,0
2016-12-28T08:01:50.132Z,0
2016-12-28T08:02:30.707Z,0
2016-12-28T08:03:11.276Z,0
2016-12-28T08:03:51.851Z,0
2016-12-28T08:04:32.406Z,0
2016-12-28T08:07:13.392Z,5
2016-12-28T08:07:53.960Z,5
2016-12-28T08:08:34.538Z,10
2016-12-28T08:09:15.119Z,10
2016-12-28T08:09:55.691Z,10
2016-12-28T08:10:36.273Z,10
2016-12-28T08:11:16.855Z,10
2016-12-28T08:11:57.425Z,10
2016-12-28T08:12:38.006Z,10
2016-12-28T08:13:18.898Z,10
2016-12-28T08:13:59.470Z,10
2016-12-28T08:14:40.033Z,10
2016-12-28T08:15:20.611Z,10
2016-12-28T08:16:01.168Z,10
2016-12-28T08:16:41.753Z,10
2016-12-28T08:17:22.320Z,10
2016-12-28T08:18:02.889Z,10
2016-12-28T08:18:43.464Z,10
2016-12-28T08:19:24.048Z,10
2016-12-28T08:20:04.624Z,10
2016-12-28T08:20:45.191Z,10
2016-12-28T08:21:25.771Z,10
2016-12-28T08:22:06.340Z,10
2016-12-28T08:22:46.914Z,10
2016-12-28T08:23:27.494Z,10
2016-12-28T08:24:08.068Z,10
2016-12-28T08:24:48.646Z,10
2016-12-28T08:25:29.229Z,10
2016-12-28T08:26:09.805Z,10
2016-12-28T08:26:50.373Z,10
2016-12-28T08:27:30.943Z,10
2016-12-28T08:28:11.520Z,10
2016-12-28T08:28:52.095Z,10
2016-12-28T08:29:32.673Z,10
2016-12-28T08:30:13.269Z,10
2016-12-28T08:30:53.853Z,10
2016-12-28T08:31:34.425Z,10
2016-12-28T08:32:15.002Z,10
2016-12-28T08:32:55.567Z,10
2016-12-28T08:33:36.156Z,15
2016-12-28T08:34:16.737Z,15
2016-12-28T08:34:57.316Z,15
2016-12-28T08:35:37.899Z,15
2016-12-28T08:36:18.460Z,15
2016-12-28T08:36:59.041Z,15
2016-12-28T08:37:39.621Z,15
2016-12-28T08:38:20.199Z,15
2016-12-28T08:39:00.769Z,15
2016-12-28T08:39:41.342Z,15
2016-12-28T08:40:21.923Z,15
2016-12-28T08:41:02.510Z,35
2016-12-28T08:41:43.089Z,10
2016-12-28T08:42:23.684Z,15
2016-12-28T08:43:04.265Z,15
2016-12-28T08:43:44.837Z,15
2016-12-28T08:44:25.416Z,15
2016-12-28T08:45:06.001Z,20
2016-12-28T08:45:46.577Z,20
2016-12-28T08:46:27.146Z,20
2016-12-28T08:47:07.723Z,15
2016-12-28T08:47:48.303Z,20
2016-12-28T08:48:28.877Z,20
2016-12-28T08:49:09.458Z,20
2016-12-28T08:49:50.036Z,20
2016-12-28T08:50:30.602Z,20
2016-12-28T08:51:11.176Z,20
2016-12-28T08:51:51.755Z,20
2016-12-28T08:52:32.337Z,20
2016-12-28T08:53:12.910Z,25
2016-12-28T08:53:53.488Z,25
2016-12-28T08:54:34.071Z,25
2016-12-28T08:55:14.643Z,25
2016-12-28T08:55:55.205Z,25
2016-12-28T08:56:35.783Z,25
2016-12-28T08:57:16.350Z,25
2016-12-28T08:57:56.921Z,25
2016-12-28T08:58:37.503Z,30
2016-12-28T08:59:18.072Z,30
2016-12-28T08:59:58.648Z,30
2016-12-28T09:00:39.233Z,30
2016-12-28T09:01:19.809Z,30
2016-12-28T09:02:00.389Z,30
2016-12-28T09:02:40.967Z,30
2016-12-28T09:03:21.548Z,25
2016-12-28T09:04:02.134Z,25
2016-12-28T09:04:42.719Z,30
2016-12-28T09:05:23.297Z,25
2016-12-28T09:06:03.872Z,25
2016-12-28T09:06:44.447Z,25
2016-12-28T09:07:25.024Z,25
2016-12-28T09:08:05.602Z,25
2016-12-28T09:08:46.198Z,25
2016-12-28T09:09:26.776Z,30
2016-12-28T09:10:07.346Z,30
2016-12-28T09:10:47.921Z,30
2016-12-28T09:11:28.501Z,30
2016-12-28T09:12:09.087Z,30
2016-12-28T09:12:49.670Z,30
2016-12-28T09:13:30.242Z,30
2016-12-28T09:14:10.825Z,30
2016-12-28T09:14:51.390Z,35
2016-12-28T09:15:31.969Z,30
2016-12-28T09:16:12.541Z,30
2016-12-28T09:16:53.129Z,30
2016-12-28T09:17:33.705Z,30
2016-12-28T09:18:14.287Z,30
2016-12-28T09:18:54.863Z,35
2016-12-28T09:19:35.439Z,30
2016-12-28T09:20:16.016Z,30
2016-12-28T09:20:56.595Z,30
2016-12-28T09:21:37.182Z,30
2016-12-28T09:22:17.762Z,30
2016-12-28T09:22:58.337Z,30
2016-12-28T09:23:38.916Z,30
2016-12-28T09:24:19.487Z,30
2016-12-28T09:25:00.066Z,30
2016-12-28T09:25:40.632Z,30
2016-12-28T09:26:21.277Z,30
2016-12-28T09:27:01.849Z,30
2016-12-28T09:27:42.428Z,30
2016-12-28T09:28:23.009Z,30
2016-12-28T09:29:03.581Z,30
2016-12-28T09:29:44.159Z,30
2016-12-28T09:30:24.728Z,30
2016-12-28T09:31:05.310Z,30
2016-12-28T09:31:45.876Z,30
2016-12-28T09:32:26.456Z,30
2016-12-28T09:33:07.038Z,30
2016-12-28T09:33:47.623Z,30
2016-12-28T09:34:28.204Z,30
2016-12-28T09:35:08.788Z,30
2016-12-28T09:35:49.363Z,30
2016-12-28T09:36:29.950Z,30
2016-12-28T09:37:10.530Z,30
2016-12-28T09:37:51.108Z,30
2016-12-28T09:38:31.687Z,30
2016-12-28T09:39:12.262Z,30
2016-12-28T09:39:52.832Z,30
2016-12-28T09:40:33.411Z,30
2016-12-28T09:41:13.985Z,30
2016-12-28T09:41:54.560Z,30
2016-12-28T09:42:35.143Z,30
2016-12-28T09:43:15.710Z,30
2016-12-28T09:43:56.281Z,30
2016-12-28T09:44:36.868Z,35
2016-12-28T09:45:17.444Z,35
2016-12-28T09:45:58.016Z,35
2016-12-28T09:46:38.589Z,35
2016-12-28T09:47:19.165Z,30
2016-12-28T09:47:59.735Z,30
2016-12-28T09:48:40.321Z,30
2016-12-28T09:49:20.896Z,30
2016-12-28T09:50:01.474Z,30
2016-12-28T09:50:42.031Z,30
2016-12-28T09:51:22.603Z,30
2016-12-28T09:52:03.172Z,30
2016-12-28T09:52:43.748Z,25
2016-12-28T09:53:24.330Z,30
2016-12-28T09:54:04.893Z,30
2016-12-28T09:54:45.479Z,30
2016-12-28T09:55:26.056Z,30
2016-12-28T09:56:06.625Z,30
2016-12-28T09:56:47.200Z,30
2016-12-28T09:57:27.783Z,35
2016-12-28T09:58:08.362Z,35